sensor_id;sensor_type;location;lat;lon;timestamp;temperature;humidity
20777;DHT22;10548;47.504;8.248;2022-07-06T00:01:31;16.40;99.80
20777;DHT22;10548;47.504;8.248;2022-07-06T00:03:58;16.40;99.30
20777;DHT22;10548;47.504;8.248;2022-07-06T00:06:26;16.40;98.80
20777;DHT22;10548;47.504;8.248;2022-07-06T00:08:53;16.50;99.50
20777;DHT22;10548;47.504;8.248;2022-07-06T00:11:20;16.60;98.60
20777;DHT22;10548;47.504;8.248;2022-07-06T00:13:48;16.30;99.90
20777;DHT22;10548;47.504;8.248;2022-07-06T00:16:16;16.10;99.90
20777;DHT22;10548;47.504;8.248;2022-07-06T00:18:43;16.00;99.90
20777;DHT22;10548;47.504;8.248;2022-07-06T00:21:11;16.20;99.90
20777;DHT22;10548;47.504;8.248;2022-07-06T00:23:38;16.40;99.90
20777;DHT22;10548;47.504;8.248;2022-07-06T00:26:05;16.30;99.90
20777;DHT22;10548;47.504;8.248;2022-07-06T00:28:33;16.30;99.90
20777;DHT22;10548;47.504;8.248;2022-07-06T00:31:00;16.10;99.90
20777;DHT22;10548;47.504;8.248;2022-07-06T00:33:27;16.00;99.90
20777;DHT22;10548;47.504;8.248;2022-07-06T00:35:55;15.90;99.90
20777;DHT22;10548;47.504;8.248;2022-07-06T00:38:22;15.90;99.90
20777;DHT22;10548;47.504;8.248;2022-07-06T00:40:50;15.70;99.90
20777;DHT22;10548;47.504;8.248;2022-07-06T00:43:18;15.70;99.90
20777;DHT22;10548;47.504;8.248;2022-07-06T00:45:45;15.70;99.90
20777;DHT22;10548;47.504;8.248;2022-07-06T00:48:13;15.70;99.90
20777;DHT22;10548;47.504;8.248;2022-07-06T00:50:41;15.60;99.90
20777;DHT22;10548;47.504;8.248;2022-07-06T00:53:09;15.50;99.90
20777;DHT22;10548;47.504;8.248;2022-07-06T00:55:38;15.50;99.90
20777;DHT22;10548;47.504;8.248;2022-07-06T00:58:09;15.50;99.90
20777;DHT22;10548;47.504;8.248;2022-07-06T01:00:36;15.50;99.90
20777;DHT22;10548;47.504;8.248;2022-07-06T01:03:04;15.40;99.90
20777;DHT22;10548;47.504;8.248;2022-07-06T01:05:32;15.50;99.90
20777;DHT22;10548;47.504;8.248;2022-07-06T01:07:59;15.50;99.90
20777;DHT22;10548;47.504;8.248;2022-07-06T01:10:27;15.50;99.90
20777;DHT22;10548;47.504;8.248;2022-07-06T01:12:56;15.50;99.90
20777;DHT22;10548;47.504;8.248;2022-07-06T01:15:24;15.50;99.90
20777;DHT22;10548;47.504;8.248;2022-07-06T01:17:53;15.50;99.90
20777;DHT22;10548;47.504;8.248;2022-07-06T01:20:25;15.60;99.90
20777;DHT22;10548;47.504;8.248;2022-07-06T01:22:54;15.60;99.90
20777;DHT22;10548;47.504;8.248;2022-07-06T01:25:23;15.70;99.90
20777;DHT22;10548;47.504;8.248;2022-07-06T01:27:50;15.80;99.90
20777;DHT22;10548;47.504;8.248;2022-07-06T01:30:19;15.90;99.90
20777;DHT22;10548;47.504;8.248;2022-07-06T01:32:46;15.90;99.90
20777;DHT22;10548;47.504;8.248;2022-07-06T01:35:15;15.80;99.90
20777;DHT22;10548;47.504;8.248;2022-07-06T01:37:43;15.70;99.90
20777;DHT22;10548;47.504;8.248;2022-07-06T01:40:11;15.60;99.90
20777;DHT22;10548;47.504;8.248;2022-07-06T01:42:39;15.50;99.90
20777;DHT22;10548;47.504;8.248;2022-07-06T01:45:07;15.40;99.90
20777;DHT22;10548;47.504;8.248;2022-07-06T01:47:36;15.50;99.90
20777;DHT22;10548;47.504;8.248;2022-07-06T01:50:06;15.50;99.90
20777;DHT22;10548;47.504;8.248;2022-07-06T01:52:37;15.50;99.90
20777;DHT22;10548;47.504;8.248;2022-07-06T01:55:05;15.70;99.90
20777;DHT22;10548;47.504;8.248;2022-07-06T01:57:34;15.60;99.90
20777;DHT22;10548;47.504;8.248;2022-07-06T02:00:01;15.50;99.90
20777;DHT22;10548;47.504;8.248;2022-07-06T02:02:38;15.40;99.90
20777;DHT22;10548;47.504;8.248;2022-07-06T02:05:09;15.30;99.90
20777;DHT22;10548;47.504;8.248;2022-07-06T02:07:36;15.20;99.90
20777;DHT22;10548;47.504;8.248;2022-07-06T02:10:04;15.30;99.90
20777;DHT22;10548;47.504;8.248;2022-07-06T02:12:31;15.20;99.90
20777;DHT22;10548;47.504;8.248;2022-07-06T02:14:58;15.10;99.90
20777;DHT22;10548;47.504;8.248;2022-07-06T02:17:25;15.10;99.90
20777;DHT22;10548;47.504;8.248;2022-07-06T02:19:52;15.10;99.90
20777;DHT22;10548;47.504;8.248;2022-07-06T02:22:20;15.20;99.90
20777;DHT22;10548;47.504;8.248;2022-07-06T02:24:47;15.10;99.90
20777;DHT22;10548;47.504;8.248;2022-07-06T02:27:15;14.90;99.90
20777;DHT22;10548;47.504;8.248;2022-07-06T02:29:42;14.80;99.90
20777;DHT22;10548;47.504;8.248;2022-07-06T02:32:09;14.70;99.90
20777;DHT22;10548;47.504;8.248;2022-07-06T02:34:37;14.70;99.90
20777;DHT22;10548;47.504;8.248;2022-07-06T02:37:04;14.50;99.90
20777;DHT22;10548;47.504;8.248;2022-07-06T02:39:31;14.40;99.90
20777;DHT22;10548;47.504;8.248;2022-07-06T02:41:59;14.40;99.90
20777;DHT22;10548;47.504;8.248;2022-07-06T02:44:26;14.50;99.90
20777;DHT22;10548;47.504;8.248;2022-07-06T02:46:53;14.40;99.90
20777;DHT22;10548;47.504;8.248;2022-07-06T02:49:21;14.50;99.90
20777;DHT22;10548;47.504;8.248;2022-07-06T02:51:50;14.30;99.90
20777;DHT22;10548;47.504;8.248;2022-07-06T02:54:17;14.30;99.90
20777;DHT22;10548;47.504;8.248;2022-07-06T02:56:44;14.20;99.90
20777;DHT22;10548;47.504;8.248;2022-07-06T02:59:14;14.20;99.90
20777;DHT22;10548;47.504;8.248;2022-07-06T03:01:42;14.20;99.90
20777;DHT22;10548;47.504;8.248;2022-07-06T03:04:10;14.20;99.90
20777;DHT22;10548;47.504;8.248;2022-07-06T03:06:37;14.20;99.90
20777;DHT22;10548;47.504;8.248;2022-07-06T03:09:05;14.20;99.90
20777;DHT22;10548;47.504;8.248;2022-07-06T03:11:33;14.20;99.90
20777;DHT22;10548;47.504;8.248;2022-07-06T03:14:04;14.10;99.90
20777;DHT22;10548;47.504;8.248;2022-07-06T03:16:34;14.20;99.90
20777;DHT22;10548;47.504;8.248;2022-07-06T03:19:01;14.20;99.90
20777;DHT22;10548;47.504;8.248;2022-07-06T03:21:28;14.20;99.90
20777;DHT22;10548;47.504;8.248;2022-07-06T03:23:56;14.10;99.90
20777;DHT22;10548;47.504;8.248;2022-07-06T03:26:24;14.00;99.90
20777;DHT22;10548;47.504;8.248;2022-07-06T03:28:51;14.00;99.90
20777;DHT22;10548;47.504;8.248;2022-07-06T03:31:19;14.00;99.90
20777;DHT22;10548;47.504;8.248;2022-07-06T03:33:46;14.10;99.90
20777;DHT22;10548;47.504;8.248;2022-07-06T03:36:13;14.20;99.90
20777;DHT22;10548;47.504;8.248;2022-07-06T03:38:41;14.10;99.90
20777;DHT22;10548;47.504;8.248;2022-07-06T03:41:08;14.10;99.90
20777;DHT22;10548;47.504;8.248;2022-07-06T03:43:35;14.00;99.90
20777;DHT22;10548;47.504;8.248;2022-07-06T03:46:03;14.00;99.90
20777;DHT22;10548;47.504;8.248;2022-07-06T03:48:44;14.00;99.90
20777;DHT22;10548;47.504;8.248;2022-07-06T03:51:12;14.10;99.90
20777;DHT22;10548;47.504;8.248;2022-07-06T03:53:39;14.10;99.90
20777;DHT22;10548;47.504;8.248;2022-07-06T03:56:07;14.00;99.90
20777;DHT22;10548;47.504;8.248;2022-07-06T03:58:55;14.10;99.90
20777;DHT22;10548;47.504;8.248;2022-07-06T04:01:24;14.10;99.90
20777;DHT22;10548;47.504;8.248;2022-07-06T04:03:51;14.10;99.90
20777;DHT22;10548;47.504;8.248;2022-07-06T04:06:19;14.00;99.90
20777;DHT22;10548;47.504;8.248;2022-07-06T04:08:46;14.00;99.90
20777;DHT22;10548;47.504;8.248;2022-07-06T04:11:13;14.00;99.90
20777;DHT22;10548;47.504;8.248;2022-07-06T04:13:40;14.00;99.90
20777;DHT22;10548;47.504;8.248;2022-07-06T04:16:08;14.10;99.90
20777;DHT22;10548;47.504;8.248;2022-07-06T04:18:35;14.00;99.90
20777;DHT22;10548;47.504;8.248;2022-07-06T04:21:04;14.00;99.90
20777;DHT22;10548;47.504;8.248;2022-07-06T04:23:34;14.10;99.90
20777;DHT22;10548;47.504;8.248;2022-07-06T04:26:03;14.10;99.90
20777;DHT22;10548;47.504;8.248;2022-07-06T04:28:32;14.20;99.90
20777;DHT22;10548;47.504;8.248;2022-07-06T04:31:00;14.20;99.90
20777;DHT22;10548;47.504;8.248;2022-07-06T04:33:27;14.30;99.90
20777;DHT22;10548;47.504;8.248;2022-07-06T04:35:54;14.30;99.90
20777;DHT22;10548;47.504;8.248;2022-07-06T04:38:27;14.50;99.90
20777;DHT22;10548;47.504;8.248;2022-07-06T04:41:01;14.50;99.90
20777;DHT22;10548;47.504;8.248;2022-07-06T04:43:28;14.50;99.90
20777;DHT22;10548;47.504;8.248;2022-07-06T04:45:55;14.50;99.90
20777;DHT22;10548;47.504;8.248;2022-07-06T04:48:22;14.50;99.90
20777;DHT22;10548;47.504;8.248;2022-07-06T04:50:50;14.60;99.90
20777;DHT22;10548;47.504;8.248;2022-07-06T04:53:24;14.60;99.90
20777;DHT22;10548;47.504;8.248;2022-07-06T04:55:51;14.60;99.90
20777;DHT22;10548;47.504;8.248;2022-07-06T04:58:19;14.60;99.90
20777;DHT22;10548;47.504;8.248;2022-07-06T05:00:47;14.60;99.90
20777;DHT22;10548;47.504;8.248;2022-07-06T05:03:15;14.80;99.90
20777;DHT22;10548;47.504;8.248;2022-07-06T05:05:42;14.70;99.90
20777;DHT22;10548;47.504;8.248;2022-07-06T05:08:09;14.70;99.90
20777;DHT22;10548;47.504;8.248;2022-07-06T05:10:36;14.90;99.90
20777;DHT22;10548;47.504;8.248;2022-07-06T05:13:03;15.00;99.90
20777;DHT22;10548;47.504;8.248;2022-07-06T05:15:31;15.10;99.90
20777;DHT22;10548;47.504;8.248;2022-07-06T05:17:58;15.30;99.90
20777;DHT22;10548;47.504;8.248;2022-07-06T05:20:25;15.30;99.90
20777;DHT22;10548;47.504;8.248;2022-07-06T05:22:52;15.30;99.90
20777;DHT22;10548;47.504;8.248;2022-07-06T05:25:24;15.40;99.90
20777;DHT22;10548;47.504;8.248;2022-07-06T05:27:51;15.30;99.90
20777;DHT22;10548;47.504;8.248;2022-07-06T05:30:18;15.50;99.90
20777;DHT22;10548;47.504;8.248;2022-07-06T05:32:46;15.60;99.90
20777;DHT22;10548;47.504;8.248;2022-07-06T05:35:13;15.70;99.90
20777;DHT22;10548;47.504;8.248;2022-07-06T05:38:02;15.80;99.90
20777;DHT22;10548;47.504;8.248;2022-07-06T05:40:29;15.90;99.90
20777;DHT22;10548;47.504;8.248;2022-07-06T05:42:57;16.00;99.90
20777;DHT22;10548;47.504;8.248;2022-07-06T05:45:24;16.10;99.90
20777;DHT22;10548;47.504;8.248;2022-07-06T05:47:52;16.30;99.90
20777;DHT22;10548;47.504;8.248;2022-07-06T05:50:40;16.40;99.90
20777;DHT22;10548;47.504;8.248;2022-07-06T05:53:08;16.50;99.90
20777;DHT22;10548;47.504;8.248;2022-07-06T05:55:47;16.70;99.90
20777;DHT22;10548;47.504;8.248;2022-07-06T05:58:15;16.90;99.90
20777;DHT22;10548;47.504;8.248;2022-07-06T06:00:44;17.00;99.90
20777;DHT22;10548;47.504;8.248;2022-07-06T06:03:15;17.20;99.90
20777;DHT22;10548;47.504;8.248;2022-07-06T06:05:43;17.30;99.90
20777;DHT22;10548;47.504;8.248;2022-07-06T06:08:12;17.20;99.90
20777;DHT22;10548;47.504;8.248;2022-07-06T06:10:39;17.20;99.90
20777;DHT22;10548;47.504;8.248;2022-07-06T06:13:10;17.30;99.90
20777;DHT22;10548;47.504;8.248;2022-07-06T06:15:38;17.40;99.90
20777;DHT22;10548;47.504;8.248;2022-07-06T06:18:06;17.50;99.90
20777;DHT22;10548;47.504;8.248;2022-07-06T06:20:33;17.70;99.90
20777;DHT22;10548;47.504;8.248;2022-07-06T06:23:01;17.90;99.90
20777;DHT22;10548;47.504;8.248;2022-07-06T06:25:35;18.00;99.90
20777;DHT22;10548;47.504;8.248;2022-07-06T06:28:04;18.10;99.90
20777;DHT22;10548;47.504;8.248;2022-07-06T06:30:31;18.20;99.90
20777;DHT22;10548;47.504;8.248;2022-07-06T06:33:13;18.30;95.60
20777;DHT22;10548;47.504;8.248;2022-07-06T06:36:09;18.40;92.30
20777;DHT22;10548;47.504;8.248;2022-07-06T06:38:36;18.70;91.40
20777;DHT22;10548;47.504;8.248;2022-07-06T06:41:03;19.00;90.10
20777;DHT22;10548;47.504;8.248;2022-07-06T06:43:30;19.10;86.50
20777;DHT22;10548;47.504;8.248;2022-07-06T06:46:12;18.90;83.30
20777;DHT22;10548;47.504;8.248;2022-07-06T06:48:39;18.60;87.80
20777;DHT22;10548;47.504;8.248;2022-07-06T06:51:06;18.90;90.40
20777;DHT22;10548;47.504;8.248;2022-07-06T06:53:33;19.10;89.90
20777;DHT22;10548;47.504;8.248;2022-07-06T06:56:06;19.30;80.60
20777;DHT22;10548;47.504;8.248;2022-07-06T06:58:33;19.30;82.80
20777;DHT22;10548;47.504;8.248;2022-07-06T07:01:20;19.50;80.80
20777;DHT22;10548;47.504;8.248;2022-07-06T07:03:47;19.50;77.10
20777;DHT22;10548;47.504;8.248;2022-07-06T07:06:16;19.40;75.30
20777;DHT22;10548;47.504;8.248;2022-07-06T07:08:43;19.50;76.40
20777;DHT22;10548;47.504;8.248;2022-07-06T07:11:10;19.40;75.90
20777;DHT22;10548;47.504;8.248;2022-07-06T07:13:37;19.50;76.00
20777;DHT22;10548;47.504;8.248;2022-07-06T07:16:04;19.60;75.90
20777;DHT22;10548;47.504;8.248;2022-07-06T07:18:31;19.60;75.90
20777;DHT22;10548;47.504;8.248;2022-07-06T07:20:59;19.70;73.10
20777;DHT22;10548;47.504;8.248;2022-07-06T07:23:26;19.90;73.90
20777;DHT22;10548;47.504;8.248;2022-07-06T07:25:53;19.90;71.10
20777;DHT22;10548;47.504;8.248;2022-07-06T07:28:20;20.00;71.30
20777;DHT22;10548;47.504;8.248;2022-07-06T07:30:48;20.20;72.60
20777;DHT22;10548;47.504;8.248;2022-07-06T07:33:15;20.40;69.90
20777;DHT22;10548;47.504;8.248;2022-07-06T07:35:42;20.50;68.90
20777;DHT22;10548;47.504;8.248;2022-07-06T07:38:09;20.50;64.60
20777;DHT22;10548;47.504;8.248;2022-07-06T07:40:37;20.80;64.40
20777;DHT22;10548;47.504;8.248;2022-07-06T07:43:04;20.90;58.90
20777;DHT22;10548;47.504;8.248;2022-07-06T07:45:31;21.00;56.70
20777;DHT22;10548;47.504;8.248;2022-07-06T07:47:58;20.90;54.80
20777;DHT22;10548;47.504;8.248;2022-07-06T07:50:25;21.00;54.80
20777;DHT22;10548;47.504;8.248;2022-07-06T07:52:53;21.00;52.70
20777;DHT22;10548;47.504;8.248;2022-07-06T07:55:20;20.70;53.50
20777;DHT22;10548;47.504;8.248;2022-07-06T07:58:07;20.70;57.00
20777;DHT22;10548;47.504;8.248;2022-07-06T08:00:34;21.20;57.00
20777;DHT22;10548;47.504;8.248;2022-07-06T08:03:03;20.90;56.40
20777;DHT22;10548;47.504;8.248;2022-07-06T08:05:30;21.00;55.80
20777;DHT22;10548;47.504;8.248;2022-07-06T08:07:57;21.30;53.70
20777;DHT22;10548;47.504;8.248;2022-07-06T08:10:24;21.40;49.80
20777;DHT22;10548;47.504;8.248;2022-07-06T08:12:51;21.30;50.70
20777;DHT22;10548;47.504;8.248;2022-07-06T08:15:18;21.20;50.20
20777;DHT22;10548;47.504;8.248;2022-07-06T08:17:45;21.40;50.80
20777;DHT22;10548;47.504;8.248;2022-07-06T08:20:13;21.60;51.10
20777;DHT22;10548;47.504;8.248;2022-07-06T08:22:41;21.80;49.50
20777;DHT22;10548;47.504;8.248;2022-07-06T08:25:09;21.80;49.50
20777;DHT22;10548;47.504;8.248;2022-07-06T08:27:36;21.80;49.90
20777;DHT22;10548;47.504;8.248;2022-07-06T08:30:04;21.70;48.50
20777;DHT22;10548;47.504;8.248;2022-07-06T08:32:32;21.80;46.70
20777;DHT22;10548;47.504;8.248;2022-07-06T08:35:19;21.80;45.80
20777;DHT22;10548;47.504;8.248;2022-07-06T08:37:46;22.30;47.10
20777;DHT22;10548;47.504;8.248;2022-07-06T08:40:13;22.60;45.60
20777;DHT22;10548;47.504;8.248;2022-07-06T08:42:42;22.80;43.60
20777;DHT22;10548;47.504;8.248;2022-07-06T08:45:11;22.60;42.80
20777;DHT22;10548;47.504;8.248;2022-07-06T08:47:41;23.30;43.70
20777;DHT22;10548;47.504;8.248;2022-07-06T08:50:09;22.50;45.80
20777;DHT22;10548;47.504;8.248;2022-07-06T08:52:37;22.20;46.70
20777;DHT22;10548;47.504;8.248;2022-07-06T08:55:05;22.40;46.90
20777;DHT22;10548;47.504;8.248;2022-07-06T08:57:35;22.80;44.70
20777;DHT22;10548;47.504;8.248;2022-07-06T09:00:02;23.20;43.20
20777;DHT22;10548;47.504;8.248;2022-07-06T09:02:30;23.00;41.30
20777;DHT22;10548;47.504;8.248;2022-07-06T09:04:57;22.90;40.10
20777;DHT22;10548;47.504;8.248;2022-07-06T09:07:28;23.40;43.10
20777;DHT22;10548;47.504;8.248;2022-07-06T09:10:18;23.60;39.70
20777;DHT22;10548;47.504;8.248;2022-07-06T09:12:46;24.30;38.40
20777;DHT22;10548;47.504;8.248;2022-07-06T09:15:13;23.80;37.80
20777;DHT22;10548;47.504;8.248;2022-07-06T09:17:41;23.40;38.70
20777;DHT22;10548;47.504;8.248;2022-07-06T09:20:11;22.80;36.70
20777;DHT22;10548;47.504;8.248;2022-07-06T09:22:38;23.30;38.00
20777;DHT22;10548;47.504;8.248;2022-07-06T09:25:08;24.20;39.20
20777;DHT22;10548;47.504;8.248;2022-07-06T09:27:44;24.30;39.30
20777;DHT22;10548;47.504;8.248;2022-07-06T09:30:15;24.30;40.30
20777;DHT22;10548;47.504;8.248;2022-07-06T09:32:45;24.20;39.10
20777;DHT22;10548;47.504;8.248;2022-07-06T09:35:35;24.40;41.40
20777;DHT22;10548;47.504;8.248;2022-07-06T09:38:11;24.60;43.10
20777;DHT22;10548;47.504;8.248;2022-07-06T09:40:42;24.40;40.60
20777;DHT22;10548;47.504;8.248;2022-07-06T09:43:15;24.90;40.60
20777;DHT22;10548;47.504;8.248;2022-07-06T09:45:48;25.00;40.80
20777;DHT22;10548;47.504;8.248;2022-07-06T09:48:17;25.10;39.60
20777;DHT22;10548;47.504;8.248;2022-07-06T09:50:47;25.20;39.60
20777;DHT22;10548;47.504;8.248;2022-07-06T09:53:15;24.90;37.30
20777;DHT22;10548;47.504;8.248;2022-07-06T09:55:47;24.90;37.50
20777;DHT22;10548;47.504;8.248;2022-07-06T09:58:15;24.20;37.70
20777;DHT22;10548;47.504;8.248;2022-07-06T10:00:44;24.60;41.60
20777;DHT22;10548;47.504;8.248;2022-07-06T10:03:12;24.90;40.60
20777;DHT22;10548;47.504;8.248;2022-07-06T10:05:41;24.00;40.80
20777;DHT22;10548;47.504;8.248;2022-07-06T10:08:09;23.90;41.50
20777;DHT22;10548;47.504;8.248;2022-07-06T10:10:38;24.20;38.80
20777;DHT22;10548;47.504;8.248;2022-07-06T10:13:07;24.20;41.10
20777;DHT22;10548;47.504;8.248;2022-07-06T10:15:36;24.20;40.60
20777;DHT22;10548;47.504;8.248;2022-07-06T10:18:06;24.50;40.60
20777;DHT22;10548;47.504;8.248;2022-07-06T10:20:36;25.00;40.40
20777;DHT22;10548;47.504;8.248;2022-07-06T10:23:05;25.10;38.00
20777;DHT22;10548;47.504;8.248;2022-07-06T10:25:33;25.20;40.80
20777;DHT22;10548;47.504;8.248;2022-07-06T10:28:00;25.10;37.90
20777;DHT22;10548;47.504;8.248;2022-07-06T10:30:28;24.10;39.80
20777;DHT22;10548;47.504;8.248;2022-07-06T10:32:57;24.40;40.10
20777;DHT22;10548;47.504;8.248;2022-07-06T10:35:25;24.80;40.60
20777;DHT22;10548;47.504;8.248;2022-07-06T10:38:10;25.50;39.60
20777;DHT22;10548;47.504;8.248;2022-07-06T10:40:39;26.70;37.80
20777;DHT22;10548;47.504;8.248;2022-07-06T10:43:38;26.00;36.00
20777;DHT22;10548;47.504;8.248;2022-07-06T10:46:17;25.30;38.00
20777;DHT22;10548;47.504;8.248;2022-07-06T10:48:49;26.00;36.70
20777;DHT22;10548;47.504;8.248;2022-07-06T10:51:27;25.60;36.40
20777;DHT22;10548;47.504;8.248;2022-07-06T10:53:59;25.70;32.80
20777;DHT22;10548;47.504;8.248;2022-07-06T10:56:33;26.00;31.80
20777;DHT22;10548;47.504;8.248;2022-07-06T10:59:22;26.10;33.00
20777;DHT22;10548;47.504;8.248;2022-07-06T11:04:53;25.50;30.90
20777;DHT22;10548;47.504;8.248;2022-07-06T11:07:20;25.80;31.50
20777;DHT22;10548;47.504;8.248;2022-07-06T11:09:55;26.00;30.20
20777;DHT22;10548;47.504;8.248;2022-07-06T11:12:23;26.40;30.80
20777;DHT22;10548;47.504;8.248;2022-07-06T11:14:52;26.20;32.40
20777;DHT22;10548;47.504;8.248;2022-07-06T11:17:20;24.90;34.50
20777;DHT22;10548;47.504;8.248;2022-07-06T11:19:55;25.30;35.00
20777;DHT22;10548;47.504;8.248;2022-07-06T11:22:23;25.60;32.30
20777;DHT22;10548;47.504;8.248;2022-07-06T11:24:53;25.40;34.20
20777;DHT22;10548;47.504;8.248;2022-07-06T11:27:23;25.90;31.30
20777;DHT22;10548;47.504;8.248;2022-07-06T11:29:50;25.90;33.90
20777;DHT22;10548;47.504;8.248;2022-07-06T11:32:23;26.70;30.60
20777;DHT22;10548;47.504;8.248;2022-07-06T11:34:51;25.70;33.10
20777;DHT22;10548;47.504;8.248;2022-07-06T11:37:18;25.10;32.50
20777;DHT22;10548;47.504;8.248;2022-07-06T11:39:47;25.20;33.10
20777;DHT22;10548;47.504;8.248;2022-07-06T11:42:17;25.60;33.40
20777;DHT22;10548;47.504;8.248;2022-07-06T11:44:45;26.90;31.50
20777;DHT22;10548;47.504;8.248;2022-07-06T11:47:13;26.80;28.20
20777;DHT22;10548;47.504;8.248;2022-07-06T11:49:49;26.70;29.10
20777;DHT22;10548;47.504;8.248;2022-07-06T11:52:17;26.80;29.10
20777;DHT22;10548;47.504;8.248;2022-07-06T11:54:44;26.80;29.20
20777;DHT22;10548;47.504;8.248;2022-07-06T11:57:11;27.60;29.00
20777;DHT22;10548;47.504;8.248;2022-07-06T11:59:40;27.40;28.20
20777;DHT22;10548;47.504;8.248;2022-07-06T12:02:12;27.40;27.30
20777;DHT22;10548;47.504;8.248;2022-07-06T12:04:41;27.50;28.50
20777;DHT22;10548;47.504;8.248;2022-07-06T12:07:11;26.80;28.20
20777;DHT22;10548;47.504;8.248;2022-07-06T12:09:40;27.20;29.70
20777;DHT22;10548;47.504;8.248;2022-07-06T12:12:09;27.30;28.70
20777;DHT22;10548;47.504;8.248;2022-07-06T12:14:37;26.00;29.70
20777;DHT22;10548;47.504;8.248;2022-07-06T14:48:50;26.80;30.00
20777;DHT22;10548;47.504;8.248;2022-07-06T14:51:17;26.90;23.70
20777;DHT22;10548;47.504;8.248;2022-07-06T14:53:44;26.80;25.00
20777;DHT22;10548;47.504;8.248;2022-07-06T14:56:12;27.60;24.20
20777;DHT22;10548;47.504;8.248;2022-07-06T14:58:39;27.40;23.60
20777;DHT22;10548;47.504;8.248;2022-07-06T15:01:18;26.90;23.30
20777;DHT22;10548;47.504;8.248;2022-07-06T15:03:46;26.80;25.10
20777;DHT22;10548;47.504;8.248;2022-07-06T15:06:13;26.50;26.50
20777;DHT22;10548;47.504;8.248;2022-07-06T15:09:00;27.90;25.80
20777;DHT22;10548;47.504;8.248;2022-07-06T15:11:31;28.80;24.60
20777;DHT22;10548;47.504;8.248;2022-07-06T15:13:59;27.80;25.00
20777;DHT22;10548;47.504;8.248;2022-07-06T15:16:26;28.80;25.10
20777;DHT22;10548;47.504;8.248;2022-07-06T15:18:53;28.20;24.60
20777;DHT22;10548;47.504;8.248;2022-07-06T15:21:20;27.90;25.00
20777;DHT22;10548;47.504;8.248;2022-07-06T15:23:47;27.70;26.10
20777;DHT22;10548;47.504;8.248;2022-07-06T15:26:14;28.00;24.80
20777;DHT22;10548;47.504;8.248;2022-07-06T15:28:41;27.10;26.80
20777;DHT22;10548;47.504;8.248;2022-07-06T15:31:08;27.30;26.60
20777;DHT22;10548;47.504;8.248;2022-07-06T16:30:51;27.90;35.00
20777;DHT22;10548;47.504;8.248;2022-07-06T16:33:18;27.40;38.30
20777;DHT22;10548;47.504;8.248;2022-07-06T16:35:46;27.30;40.30
20777;DHT22;10548;47.504;8.248;2022-07-06T16:38:18;27.20;44.40
20777;DHT22;10548;47.504;8.248;2022-07-06T16:40:45;27.20;43.10
20777;DHT22;10548;47.504;8.248;2022-07-06T16:43:12;27.00;43.10
20777;DHT22;10548;47.504;8.248;2022-07-06T16:45:41;26.90;43.00
20777;DHT22;10548;47.504;8.248;2022-07-06T16:48:09;27.10;43.50
20777;DHT22;10548;47.504;8.248;2022-07-06T16:50:36;27.10;42.40
20777;DHT22;10548;47.504;8.248;2022-07-06T16:53:03;27.00;41.40
20777;DHT22;10548;47.504;8.248;2022-07-06T16:55:31;26.40;41.60
20777;DHT22;10548;47.504;8.248;2022-07-06T16:57:58;26.10;46.60
20777;DHT22;10548;47.504;8.248;2022-07-06T17:00:25;26.30;47.00
20777;DHT22;10548;47.504;8.248;2022-07-06T17:02:53;25.60;47.10
20777;DHT22;10548;47.504;8.248;2022-07-06T17:05:20;25.90;49.00
20777;DHT22;10548;47.504;8.248;2022-07-06T17:07:47;25.20;50.70
20777;DHT22;10548;47.504;8.248;2022-07-06T17:10:14;25.10;49.60
20777;DHT22;10548;47.504;8.248;2022-07-06T17:12:42;25.00;50.70
20777;DHT22;10548;47.504;8.248;2022-07-06T17:15:09;25.00;51.00
20777;DHT22;10548;47.504;8.248;2022-07-06T17:17:36;24.90;50.90
20777;DHT22;10548;47.504;8.248;2022-07-06T17:20:05;25.00;52.10
20777;DHT22;10548;47.504;8.248;2022-07-06T17:22:32;24.80;51.50
20777;DHT22;10548;47.504;8.248;2022-07-06T17:24:59;24.70;53.40
20777;DHT22;10548;47.504;8.248;2022-07-06T17:27:26;24.70;53.30
20777;DHT22;10548;47.504;8.248;2022-07-06T17:29:53;24.80;53.10
20777;DHT22;10548;47.504;8.248;2022-07-06T17:32:21;24.80;53.70
20777;DHT22;10548;47.504;8.248;2022-07-06T17:34:48;24.50;51.10
20777;DHT22;10548;47.504;8.248;2022-07-06T17:37:15;24.30;52.80
20777;DHT22;10548;47.504;8.248;2022-07-06T17:39:42;24.50;52.90
20777;DHT22;10548;47.504;8.248;2022-07-06T17:42:09;24.40;54.50
20777;DHT22;10548;47.504;8.248;2022-07-06T17:44:37;24.30;55.90
20777;DHT22;10548;47.504;8.248;2022-07-06T17:47:04;24.80;55.30
20777;DHT22;10548;47.504;8.248;2022-07-06T17:49:31;24.80;56.70
20777;DHT22;10548;47.504;8.248;2022-07-06T17:51:59;24.70;53.40
20777;DHT22;10548;47.504;8.248;2022-07-06T17:54:27;24.60;53.60
20777;DHT22;10548;47.504;8.248;2022-07-06T17:56:54;24.30;53.90
20777;DHT22;10548;47.504;8.248;2022-07-06T17:59:21;24.20;54.10
20777;DHT22;10548;47.504;8.248;2022-07-06T18:01:48;24.40;54.30
20777;DHT22;10548;47.504;8.248;2022-07-06T18:04:15;24.40;55.00
20777;DHT22;10548;47.504;8.248;2022-07-06T18:06:42;24.80;53.90
20777;DHT22;10548;47.504;8.248;2022-07-06T18:09:09;24.70;53.40
20777;DHT22;10548;47.504;8.248;2022-07-06T18:11:36;24.90;53.80
20777;DHT22;10548;47.504;8.248;2022-07-06T18:14:03;24.70;53.90
20777;DHT22;10548;47.504;8.248;2022-07-06T18:16:31;24.70;54.30
20777;DHT22;10548;47.504;8.248;2022-07-06T18:18:58;24.60;53.90
20777;DHT22;10548;47.504;8.248;2022-07-06T18:21:26;24.30;55.60
20777;DHT22;10548;47.504;8.248;2022-07-06T18:23:53;24.50;56.60
20777;DHT22;10548;47.504;8.248;2022-07-06T18:26:20;24.70;54.60
20777;DHT22;10548;47.504;8.248;2022-07-06T18:28:47;24.80;54.90
20777;DHT22;10548;47.504;8.248;2022-07-06T18:31:14;24.70;53.10
20777;DHT22;10548;47.504;8.248;2022-07-06T18:33:41;24.30;54.50
20777;DHT22;10548;47.504;8.248;2022-07-06T18:36:08;23.90;54.60
20777;DHT22;10548;47.504;8.248;2022-07-06T18:38:36;23.80;56.80
20777;DHT22;10548;47.504;8.248;2022-07-06T18:41:04;23.60;58.20
20777;DHT22;10548;47.504;8.248;2022-07-06T18:43:31;23.30;61.30
20777;DHT22;10548;47.504;8.248;2022-07-06T18:45:58;23.10;58.80
20777;DHT22;10548;47.504;8.248;2022-07-06T18:48:25;22.90;58.60
20777;DHT22;10548;47.504;8.248;2022-07-06T18:50:52;22.80;59.20
20777;DHT22;10548;47.504;8.248;2022-07-06T18:53:19;22.60;59.10
20777;DHT22;10548;47.504;8.248;2022-07-06T18:55:47;22.50;61.10
20777;DHT22;10548;47.504;8.248;2022-07-06T18:58:14;22.40;60.30
20777;DHT22;10548;47.504;8.248;2022-07-06T19:00:41;22.20;61.30
20777;DHT22;10548;47.504;8.248;2022-07-06T19:03:09;22.10;64.00
20777;DHT22;10548;47.504;8.248;2022-07-06T19:05:36;21.90;65.30
20777;DHT22;10548;47.504;8.248;2022-07-06T19:08:03;21.60;67.10
20777;DHT22;10548;47.504;8.248;2022-07-06T19:10:31;21.50;69.00
20777;DHT22;10548;47.504;8.248;2022-07-06T19:12:58;21.50;63.80